Time;durP1;ratioP1;P1;durP2;ratioP2;P2;SDS_P1;SDS_P2;PMS_P1;PMS_P2;Temp;Humidity;BMP_temperature;BMP_pressure;BME280_temperature;BME280_humidity;BME280_pressure;Samples;Min_cycle;Max_cycle;Signal;HPM_P1;HPM_P2
2023/04/18 00:01:22;;;;;;;12.15;9.88;;;9.50;99.00;;;;;;5015173;28;20628;-77
2023/04/18 00:03:50;;;;;;;16.67;10.70;;;9.40;99.20;;;;;;5012967;28;20205;-78
2023/04/18 00:06:20;;;;;;;12.55;10.18;;;9.40;99.50;;;;;;5012017;28;20668;-77
2023/04/18 00:08:48;;;;;;;18.27;9.93;;;9.40;99.70;;;;;;5016788;28;20205;-76
2023/04/18 00:11:15;;;;;;;14.13;10.02;;;9.40;99.80;;;;;;5024181;28;20237;-77
2023/04/18 00:13:41;;;;;;;19.73;10.68;;;9.40;99.80;;;;;;5029175;28;20197;-77
2023/04/18 00:16:08;;;;;;;15.23;11.50;;;9.50;99.90;;;;;;5011293;28;20229;-76
2023/04/18 00:18:36;;;;;;;14.45;10.27;;;9.40;99.90;;;;;;5024510;28;20200;-77
2023/04/18 00:21:03;;;;;;;11.95;9.55;;;9.40;99.90;;;;;;5020302;28;20221;-76
2023/04/18 00:23:33;;;;;;;13.13;11.55;;;9.40;99.90;;;;;;5028836;28;20549;-77
2023/04/18 00:26:00;;;;;;;11.55;10.35;;;9.50;99.90;;;;;;5026235;28;20205;-76
2023/04/18 00:28:27;;;;;;;14.38;11.40;;;9.40;99.90;;;;;;5023621;28;20204;-76
2023/04/18 00:30:54;;;;;;;12.55;10.07;;;9.40;99.90;;;;;;5019242;28;20189;-77
2023/04/18 00:33:21;;;;;;;14.57;10.77;;;9.40;99.90;;;;;;5019845;28;20281;-78
2023/04/18 00:35:48;;;;;;;15.25;11.35;;;9.40;99.90;;;;;;5012493;28;20217;-76
2023/04/18 00:38:15;;;;;;;15.43;11.15;;;9.40;99.90;;;;;;5015032;28;20197;-76
2023/04/18 00:40:43;;;;;;;12.90;10.88;;;9.40;99.90;;;;;;5014937;28;20220;-77
2023/04/18 00:43:13;;;;;;;14.95;10.88;;;9.40;99.90;;;;;;5015136;28;20301;-76
2023/04/18 00:45:40;;;;;;;16.52;11.00;;;9.40;99.90;;;;;;5023322;28;20220;-76
2023/04/18 00:48:07;;;;;;;10.98;9.38;;;9.40;99.90;;;;;;5019208;28;20223;-77
2023/04/18 00:50:34;;;;;;;16.42;9.73;;;9.40;99.90;;;;;;5024145;28;20200;-75
2023/04/18 00:53:05;;;;;;;12.20;9.75;;;9.30;99.90;;;;;;5020380;28;20197;-75
2023/04/18 00:55:33;;;;;;;12.95;8.75;;;9.30;99.90;;;;;;5030828;28;20285;-78
2023/04/18 00:58:02;;;;;;;12.38;9.25;;;9.20;99.90;;;;;;5026152;28;20196;-77
2023/04/18 01:00:29;;;;;;;9.85;8.45;;;9.20;99.90;;;;;;5012198;28;20239;-76
2023/04/18 01:02:56;;;;;;;10.38;7.50;;;9.20;99.90;;;;;;5020510;28;20623;-77
2023/04/18 01:05:23;;;;;;;9.07;7.15;;;9.10;99.90;;;;;;5008064;28;20248;-76
2023/04/18 01:07:50;;;;;;;11.18;7.78;;;9.00;99.90;;;;;;5017249;28;20246;-76
2023/04/18 01:10:18;;;;;;;9.93;6.75;;;9.10;99.90;;;;;;5014814;28;20663;-77
2023/04/18 01:12:45;;;;;;;14.30;6.60;;;9.10;99.90;;;;;;5012946;28;20204;-77
2023/04/18 01:15:13;;;;;;;9.15;7.03;;;9.10;99.90;;;;;;5025330;28;20340;-77
2023/04/18 01:17:40;;;;;;;8.23;6.45;;;9.00;99.90;;;;;;5014439;28;20288;-77
2023/04/18 01:20:08;;;;;;;9.43;7.30;;;9.00;99.90;;;;;;5013193;28;20593;-77
2023/04/18 01:22:35;;;;;;;8.25;6.32;;;8.90;99.90;;;;;;5011416;28;20300;-77
2023/04/18 01:25:08;;;;;;;8.55;7.38;;;8.90;99.90;;;;;;5013959;28;20308;-76
2023/04/18 01:27:35;;;;;;;9.95;7.35;;;8.80;99.90;;;;;;5008316;28;20236;-76
2023/04/18 01:30:02;;;;;;;12.45;7.65;;;8.80;99.90;;;;;;5016044;28;20279;-78
2023/04/18 01:32:29;;;;;;;10.23;7.18;;;8.80;99.90;;;;;;5007614;28;20200;-78
2023/04/18 01:35:00;;;;;;;16.63;9.13;;;8.80;99.90;;;;;;5022877;28;20312;-75
2023/04/18 01:37:27;;;;;;;12.90;9.68;;;8.90;99.90;;;;;;5016226;28;20195;-76
2023/04/18 01:40:32;;;;;;;13.35;9.00;;;8.90;99.90;;;;;;5018958;28;20192;-77
2023/04/18 01:42:58;;;;;;;12.40;9.95;;;8.80;99.90;;;;;;5015916;28;20453;-76
2023/04/18 01:45:30;;;;;;;13.07;10.77;;;8.90;99.90;;;;;;5015091;28;20239;-76
2023/04/18 01:47:56;;;;;;;11.55;8.90;;;8.90;99.90;;;;;;5009775;28;20220;-78
2023/04/18 01:50:25;;;;;;;14.50;9.95;;;8.80;99.90;;;;;;5026784;28;20228;-77
2023/04/18 01:52:52;;;;;;;16.30;11.85;;;8.80;99.90;;;;;;5025696;28;20207;-75
2023/04/18 01:55:28;;;;;;;15.38;11.13;;;8.90;99.90;;;;;;5009702;28;20228;-76
2023/04/18 01:57:56;;;;;;;13.50;10.45;;;8.80;99.90;;;;;;5016743;28;20255;-77
2023/04/18 02:00:25;;;;;;;13.73;11.02;;;8.80;99.90;;;;;;5025333;28;20299;-78
2023/04/18 02:02:51;;;;;;;15.90;11.63;;;8.70;99.90;;;;;;5012202;28;20272;-77
2023/04/18 02:05:20;;;;;;;18.58;11.10;;;8.70;99.90;;;;;;5014729;28;20212;-77
2023/04/18 02:07:48;;;;;;;13.88;10.60;;;8.70;99.90;;;;;;5025249;28;20235;-77
2023/04/18 02:10:17;;;;;;;15.65;11.70;;;8.70;99.90;;;;;;5021018;28;20651;-77
2023/04/18 02:12:43;;;;;;;16.42;13.27;;;8.70;99.90;;;;;;5017213;28;20201;-77
2023/04/18 02:15:20;;;;;;;19.98;13.32;;;8.70;99.90;;;;;;5025483;28;20244;-77
2023/04/18 02:17:47;;;;;;;16.20;13.00;;;8.70;99.90;;;;;;5020222;28;20288;-76
2023/04/18 02:20:14;;;;;;;15.70;13.02;;;8.70;99.90;;;;;;5025941;28;20196;-76
2023/04/18 02:22:41;;;;;;;24.23;14.20;;;8.70;99.90;;;;;;5028926;28;20572;-77
2023/04/18 02:25:14;;;;;;;20.63;13.23;;;8.70;99.90;;;;;;5022063;28;20218;-77
2023/04/18 02:27:41;;;;;;;19.50;14.43;;;8.80;99.90;;;;;;5023523;28;20283;-76
2023/04/18 02:30:09;;;;;;;17.05;13.40;;;8.70;99.90;;;;;;5020542;28;20196;-77
2023/04/18 02:32:37;;;;;;;17.90;13.18;;;8.70;99.90;;;;;;5027733;28;20192;-76
2023/04/18 02:35:07;;;;;;;19.73;14.68;;;8.70;99.90;;;;;;5017423;28;20241;-78
2023/04/18 02:37:33;;;;;;;17.42;14.68;;;8.70;99.90;;;;;;5028384;28;20196;-77
2023/04/18 02:40:02;;;;;;;21.70;16.27;;;8.60;99.90;;;;;;5023412;28;20296;-76
2023/04/18 02:42:28;;;;;;;17.50;14.65;;;8.60;99.90;;;;;;5019768;28;20201;-77
2023/04/18 02:44:55;;;;;;;21.73;15.88;;;8.60;99.90;;;;;;5023629;28;20315;-76
2023/04/18 02:47:22;;;;;;;20.85;15.13;;;8.70;99.90;;;;;;5017799;28;20193;-77
2023/04/18 02:49:58;;;;;;;21.15;15.57;;;8.70;99.90;;;;;;5030581;28;20203;-77
2023/04/18 02:52:26;;;;;;;20.25;15.35;;;8.70;99.90;;;;;;5031384;28;20204;-77
2023/04/18 02:54:56;;;;;;;26.63;16.88;;;8.90;99.90;;;;;;5021948;28;20216;-76
2023/04/18 02:57:27;;;;;;;23.23;15.77;;;8.70;99.90;;;;;;5011693;28;20196;-76
2023/04/18 03:00:21;;;;;;;22.13;15.30;;;8.70;99.90;;;;;;5016597;28;20199;-77
2023/04/18 03:02:48;;;;;;;20.48;14.25;;;8.70;99.90;;;;;;5007258;28;20220;-77
2023/04/18 03:05:29;;;;;;;23.50;16.83;;;8.70;99.90;;;;;;5024408;28;20275;-76
2023/04/18 03:07:59;;;;;;;24.42;17.20;;;8.60;99.90;;;;;;5014941;28;20209;-77
2023/04/18 03:10:26;;;;;;;26.80;19.20;;;8.60;99.90;;;;;;5020209;28;20227;-77
2023/04/18 03:12:53;;;;;;;26.13;16.52;;;8.70;99.90;;;;;;5026289;28;20211;-77
2023/04/18 03:15:20;;;;;;;22.40;16.98;;;8.70;99.90;;;;;;5017458;28;20303;-75
2023/04/18 03:17:47;;;;;;;22.83;15.95;;;8.70;99.90;;;;;;5026854;28;20209;-75
2023/04/18 03:20:14;;;;;;;26.75;17.13;;;8.60;99.90;;;;;;5010953;28;20196;-75
2023/04/18 03:22:42;;;;;;;26.45;18.88;;;8.60;99.90;;;;;;5017319;28;20232;-74
2023/04/18 03:25:10;;;;;;;23.02;17.73;;;8.50;99.90;;;;;;5012127;28;20225;-76
2023/04/18 03:27:37;;;;;;;26.17;18.13;;;8.50;99.90;;;;;;5015820;28;20190;-77
2023/04/18 03:30:04;;;;;;;28.42;18.00;;;8.60;99.90;;;;;;5012383;28;20203;-77
2023/04/18 03:32:33;;;;;;;28.98;20.08;;;8.50;99.90;;;;;;5012530;28;20193;-76
2023/04/18 03:35:00;;;;;;;26.38;18.33;;;8.60;99.90;;;;;;5025148;28;20275;-76
2023/04/18 03:37:27;;;;;;;28.88;20.35;;;8.50;99.90;;;;;;5020804;28;20202;-75
2023/04/18 03:39:56;;;;;;;32.72;22.00;;;8.60;99.90;;;;;;5008923;28;20207;-77
2023/04/18 03:42:24;;;;;;;27.67;19.42;;;8.50;99.90;;;;;;5025033;28;20257;-76
2023/04/18 03:44:50;;;;;;;29.38;20.10;;;8.50;99.90;;;;;;5007174;28;20248;-77
2023/04/18 03:47:17;;;;;;;33.15;21.92;;;8.50;99.90;;;;;;5006018;28;20281;-78
2023/04/18 03:49:44;;;;;;;30.75;20.75;;;8.50;99.90;;;;;;5019619;28;20232;-76
2023/04/18 03:52:11;;;;;;;30.05;20.00;;;8.40;99.90;;;;;;5021065;28;20528;-77
2023/04/18 03:54:38;;;;;;;30.08;21.80;;;8.40;99.90;;;;;;5019103;28;20248;-77
2023/04/18 03:57:06;;;;;;;36.80;21.52;;;8.40;99.90;;;;;;5010193;28;21694;-77
2023/04/18 03:59:33;;;;;;;33.42;21.00;;;8.50;99.90;;;;;;5005545;28;20210;-76
2023/04/18 04:02:00;;;;;;;33.22;21.92;;;8.70;99.90;;;;;;5018063;28;20221;-78
2023/04/18 04:04:28;;;;;;;33.13;22.15;;;8.50;99.90;;;;;;5023861;28;20304;-77
2023/04/18 04:06:55;;;;;;;40.35;24.90;;;8.50;99.90;;;;;;5002038;28;20229;-77
2023/04/18 04:09:22;;;;;;;34.63;25.77;;;8.50;99.90;;;;;;5023793;28;20666;-77
2023/04/18 04:11:49;;;;;;;39.30;24.70;;;8.50;99.90;;;;;;5029619;28;20185;-78
2023/04/18 04:14:17;;;;;;;30.13;21.25;;;8.50;99.90;;;;;;5024446;28;20600;-76
2023/04/18 04:16:44;;;;;;;34.17;24.02;;;8.50;99.90;;;;;;5034576;28;20192;-77
2023/04/18 04:19:13;;;;;;;36.15;25.52;;;8.60;99.90;;;;;;5025652;28;20292;-77
2023/04/18 04:21:40;;;;;;;37.35;25.67;;;8.50;99.90;;;;;;5031151;28;20674;-76
2023/04/18 04:24:08;;;;;;;34.80;24.55;;;8.50;99.90;;;;;;5026121;28;20307;-75
2023/04/18 04:26:35;;;;;;;36.20;26.15;;;8.50;99.90;;;;;;5019737;28;20590;-75
2023/04/18 04:29:02;;;;;;;37.58;25.08;;;8.40;99.90;;;;;;5021207;28;20287;-76
2023/04/18 04:31:31;;;;;;;39.80;27.40;;;8.50;99.90;;;;;;5019061;28;20237;-76
2023/04/18 04:33:58;;;;;;;36.58;25.48;;;8.40;99.90;;;;;;5034590;28;20218;-75
2023/04/18 04:36:26;;;;;;;43.85;27.52;;;8.30;99.90;;;;;;5010747;28;20292;-76
2023/04/18 04:38:53;;;;;;;36.05;26.35;;;8.30;99.90;;;;;;5024445;28;20639;-77
2023/04/18 04:41:21;;;;;;;36.70;25.05;;;8.40;99.90;;;;;;5012960;28;20287;-77
2023/04/18 04:43:50;;;;;;;42.63;25.95;;;8.40;99.90;;;;;;5008879;28;20295;-77
2023/04/18 04:46:18;;;;;;;38.65;27.50;;;8.40;99.90;;;;;;5016206;28;20192;-76
2023/04/18 04:48:48;;;;;;;37.22;24.48;;;8.40;99.90;;;;;;5020043;28;20208;-76
2023/04/18 04:51:15;;;;;;;30.85;24.27;;;8.40;99.90;;;;;;5012707;28;20283;-77
2023/04/18 04:53:42;;;;;;;38.83;25.98;;;8.40;99.90;;;;;;5010960;28;20310;-75
2023/04/18 04:56:09;;;;;;;44.15;26.90;;;8.40;99.90;;;;;;5023209;28;20235;-77
2023/04/18 04:58:36;;;;;;;38.53;24.90;;;8.30;99.90;;;;;;5023901;28;20201;-76
2023/04/18 05:01:06;;;;;;;39.95;25.00;;;8.30;99.90;;;;;;5026471;28;20204;-76
2023/04/18 05:03:33;;;;;;;36.25;23.27;;;8.20;99.90;;;;;;5026864;28;20247;-77
2023/04/18 05:06:03;;;;;;;39.38;24.40;;;8.20;99.90;;;;;;5017830;28;20200;-76
2023/04/18 05:08:29;;;;;;;36.22;23.30;;;8.20;99.90;;;;;;5027332;28;20196;-77
2023/04/18 05:10:56;;;;;;;32.88;21.88;;;8.30;99.90;;;;;;5012968;28;20235;-77
2023/04/18 05:13:23;;;;;;;35.70;22.55;;;8.30;99.90;;;;;;5023654;28;20546;-78
2023/04/18 05:15:50;;;;;;;31.52;22.90;;;8.40;99.90;;;;;;5024934;28;20303;-76
2023/04/18 05:18:17;;;;;;;37.72;23.83;;;8.50;99.90;;;;;;5020126;28;20193;-78
2023/04/18 05:20:44;;;;;;;29.70;21.15;;;8.50;99.90;;;;;;5015778;28;20189;-76
2023/04/18 05:23:12;;;;;;;29.88;21.65;;;8.60;99.90;;;;;;5008841;28;20231;-76
2023/04/18 05:25:39;;;;;;;33.63;24.38;;;8.60;99.90;;;;;;5018911;28;20306;-76
2023/04/18 05:28:07;;;;;;;34.75;20.85;;;8.60;99.90;;;;;;5012768;28;20571;-76
2023/04/18 05:30:34;;;;;;;39.50;24.80;;;8.60;99.90;;;;;;5013086;28;20210;-76
2023/04/18 05:33:01;;;;;;;37.70;22.67;;;8.60;99.90;;;;;;5018641;28;20225;-75
2023/04/18 05:35:28;;;;;;;38.53;23.90;;;8.60;99.90;;;;;;5013652;28;20292;-77
2023/04/18 05:37:54;;;;;;;33.88;24.30;;;8.60;99.90;;;;;;5012585;28;20582;-76
2023/04/18 05:40:23;;;;;;;32.05;22.75;;;8.60;99.90;;;;;;5018153;28;20271;-77
2023/04/18 05:42:50;;;;;;;30.20;22.73;;;8.50;99.90;;;;;;5026204;28;20618;-77
2023/04/18 05:45:17;;;;;;;37.53;25.48;;;8.50;99.90;;;;;;5014615;28;20221;-78
2023/04/18 05:47:44;;;;;;;34.55;22.23;;;8.50;99.90;;;;;;5008994;28;20295;-75
2023/04/18 05:50:11;;;;;;;35.63;23.55;;;8.60;99.90;;;;;;5003745;28;20211;-76
2023/04/18 05:52:38;;;;;;;32.97;23.48;;;8.70;99.90;;;;;;5016562;28;20201;-76
2023/04/18 05:55:05;;;;;;;33.10;22.95;;;8.90;99.90;;;;;;5015973;28;20252;-77
2023/04/18 05:57:34;;;;;;;29.35;22.08;;;8.80;99.90;;;;;;5020358;28;20240;-76
2023/04/18 06:00:01;;;;;;;37.05;21.70;;;8.90;99.90;;;;;;5024924;28;20288;-76
2023/04/18 06:02:28;;;;;;;34.80;23.02;;;8.90;99.90;;;;;;5021397;28;20255;-76
2023/04/18 06:04:56;;;;;;;28.77;19.92;;;8.70;99.90;;;;;;5012509;28;20248;-77
2023/04/18 06:07:24;;;;;;;33.83;22.60;;;8.80;99.90;;;;;;5003316;28;20205;-77
2023/04/18 06:09:52;;;;;;;26.80;22.58;;;8.90;99.90;;;;;;5013551;28;20224;-77
2023/04/18 06:12:20;;;;;;;33.88;24.05;;;9.00;99.90;;;;;;5016607;28;20643;-76
2023/04/18 06:14:50;;;;;;;36.75;23.55;;;9.10;99.90;;;;;;5025621;28;20216;-77
2023/04/18 06:17:17;;;;;;;31.02;22.52;;;9.30;99.90;;;;;;5017200;28;20280;-79
2023/04/18 06:19:44;;;;;;;28.65;21.27;;;9.70;99.90;;;;;;5009776;28;20625;-79
2023/04/18 06:22:11;;;;;;;30.15;20.00;;;9.90;99.90;;;;;;5007527;28;20309;-78
2023/04/18 06:24:37;;;;;;;26.58;18.02;;;11.10;99.90;;;;;;5009140;28;20620;-78
2023/04/18 06:27:05;;;;;;;28.63;18.02;;;12.50;99.90;;;;;;5009973;28;20556;-77
2023/04/18 06:29:33;;;;;;;27.35;17.65;;;13.70;99.90;;;;;;5005167;28;20643;-78
2023/04/18 06:32:01;;;;;;;24.00;18.83;;;14.70;98.20;;;;;;5003979;28;20204;-71
2023/04/18 06:34:28;;;;;;;22.10;17.50;;;15.80;95.10;;;;;;5018787;28;20561;-71
2023/04/18 06:36:55;;;;;;;24.90;17.17;;;16.90;92.00;;;;;;5006371;28;20467;-69
2023/04/18 06:39:22;;;;;;;23.17;17.50;;;17.30;90.10;;;;;;5005088;28;20539;-69
2023/04/18 06:41:49;;;;;;;21.23;15.53;;;17.00;88.50;;;;;;5015377;28;20427;-71
2023/04/18 06:44:16;;;;;;;24.93;17.83;;;16.90;88.40;;;;;;5022495;28;20482;-73
2023/04/18 06:46:43;;;;;;;25.03;17.97;;;16.90;88.80;;;;;;5021822;28;20519;-74
2023/04/18 06:49:12;;;;;;;23.23;16.10;;;17.30;88.50;;;;;;5007441;28;20530;-74
2023/04/18 06:51:39;;;;;;;22.00;16.53;;;17.90;86.80;;;;;;4999079;28;20527;-74
2023/04/18 06:54:06;;;;;;;18.67;15.07;;;18.20;84.40;;;;;;5009993;28;20457;-75
2023/04/18 06:56:33;;;;;;;19.50;15.67;;;18.40;82.10;;;;;;5010543;28;20559;-73
2023/04/18 06:59:00;;;;;;;19.97;15.07;;;18.60;82.60;;;;;;5009472;28;20441;-71
2023/04/18 07:01:27;;;;;;;21.33;16.57;;;19.20;81.60;;;;;;5020061;28;20513;-71
2023/04/18 07:03:54;;;;;;;16.80;14.43;;;19.80;79.20;;;;;;5007756;28;20488;-71
2023/04/18 07:06:23;;;;;;;19.40;14.90;;;20.00;77.90;;;;;;5012170;28;20440;-70
2023/04/18 07:08:50;;;;;;;19.00;14.50;;;19.60;76.60;;;;;;5009168;28;20455;-73
2023/04/18 07:11:17;;;;;;;15.37;13.50;;;20.00;78.40;;;;;;5011775;28;20929;-71
2023/04/18 07:13:46;;;;;;;17.47;14.43;;;20.50;76.60;;;;;;5005130;28;20463;-72
2023/04/18 07:16:13;;;;;;;18.50;15.43;;;20.70;74.80;;;;;;5018259;28;20445;-73
2023/04/18 07:18:39;;;;;;;19.07;15.03;;;20.10;74.50;;;;;;5012802;28;20534;-69
2023/04/18 07:21:07;;;;;;;20.30;15.53;;;19.90;75.80;;;;;;5011462;28;20753;-73
2023/04/18 07:23:36;;;;;;;21.47;15.40;;;20.40;76.70;;;;;;5016336;28;20893;-75
2023/04/18 07:26:04;;;;;;;17.20;14.70;;;20.80;74.60;;;;;;5012439;28;20996;-71
2023/04/18 07:28:32;;;;;;;18.03;15.30;;;21.00;74.60;;;;;;5015798;28;20509;-70
2023/04/18 07:31:01;;;;;;;18.93;14.70;;;21.50;73.60;;;;;;5019489;28;20439;-74
2023/04/18 07:33:30;;;;;;;16.20;13.70;;;21.60;72.70;;;;;;5030248;28;20442;-72
2023/04/18 07:35:57;;;;;;;14.60;12.20;;;21.70;71.10;;;;;;5015748;28;20467;-74
2023/04/18 07:38:24;;;;;;;15.93;13.27;;;22.00;71.20;;;;;;5025282;28;20475;-71
2023/04/18 07:40:57;;;;;;;16.57;13.83;;;22.40;71.20;;;;;;5025265;28;20435;-71
2023/04/18 07:43:25;;;;;;;18.40;14.20;;;22.50;69.50;;;;;;5013446;28;20536;-71
2023/04/18 07:45:52;;;;;;;14.60;12.77;;;23.10;69.20;;;;;;5018831;28;20487;-72
2023/04/18 07:48:20;;;;;;;13.70;10.93;;;23.20;67.50;;;;;;5021217;28;20520;-72
2023/04/18 07:50:48;;;;;;;15.20;13.13;;;23.10;67.20;;;;;;5022194;28;20475;-71
2023/04/18 07:53:14;;;;;;;14.63;11.40;;;23.00;67.40;;;;;;5014153;28;20439;-72
2023/04/18 07:55:42;;;;;;;12.27;10.97;;;23.10;66.20;;;;;;5014905;28;20964;-71
2023/04/18 07:58:10;;;;;;;10.50;9.40;;;23.30;65.90;;;;;;5015939;28;20442;-71
2023/04/18 08:00:38;;;;;;;10.70;9.70;;;22.80;64.80;;;;;;5023608;28;20802;-72
2023/04/18 08:03:06;;;;;;;12.00;8.90;;;22.10;65.70;;;;;;5014854;28;20496;-72
2023/04/18 08:05:33;;;;;;;10.57;9.23;;;21.90;66.20;;;;;;5011678;28;20463;-72
2023/04/18 08:08:00;;;;;;;12.80;8.73;;;21.90;66.30;;;;;;5014225;28;20827;-71
2023/04/18 08:10:27;;;;;;;14.70;9.27;;;21.50;66.70;;;;;;5014726;28;20443;-71
2023/04/18 08:12:53;;;;;;;10.93;8.80;;;21.00;66.90;;;;;;5008410;28;20467;-70
2023/04/18 08:15:26;;;;;;;11.03;8.87;;;20.70;67.70;;;;;;5011454;28;20497;-68
2023/04/18 08:17:53;;;;;;;12.90;8.90;;;20.60;67.90;;;;;;5005983;28;20458;-69
2023/04/18 08:20:20;;;;;;;12.00;8.37;;;20.80;68.10;;;;;;5018482;28;20810;-68
2023/04/18 08:22:47;;;;;;;12.00;8.60;;;21.20;67.50;;;;;;5021977;28;20497;-70
2023/04/18 08:25:13;;;;;;;13.43;9.73;;;21.30;67.10;;;;;;5022914;28;20465;-69
2023/04/18 08:27:40;;;;;;;11.73;9.60;;;20.80;67.60;;;;;;5018034;28;20440;-69
2023/04/18 08:30:09;;;;;;;11.23;9.57;;;21.30;67.40;;;;;;5021415;28;20470;-68
2023/04/18 08:32:37;;;;;;;12.50;8.70;;;21.90;65.60;;;;;;5005398;28;20456;-70
2023/04/18 08:35:05;;;;;;;12.90;8.30;;;21.50;65.30;;;;;;5011482;28;20551;-70
2023/04/18 08:37:35;;;;;;;10.20;8.50;;;21.60;65.00;;;;;;5012067;28;20509;-69
2023/04/18 08:40:02;;;;;;;11.60;9.33;;;21.20;65.00;;;;;;5023915;28;20765;-70
2023/04/18 08:42:30;;;;;;;12.60;7.70;;;21.50;66.40;;;;;;5023507;28;20831;-69
2023/04/18 08:44:59;;;;;;;11.30;8.07;;;22.00;64.30;;;;;;5022520;28;20455;-68
2023/04/18 08:47:26;;;;;;;10.13;8.43;;;22.10;63.20;;;;;;5023439;28;20450;-70
2023/04/18 08:49:57;;;;;;;9.50;8.03;;;21.60;63.40;;;;;;5010322;28;20451;-68
2023/04/18 08:52:25;;;;;;;7.33;6.57;;;21.70;64.40;;;;;;5007825;28;20460;-70
2023/04/18 08:54:52;;;;;;;8.93;6.97;;;22.10;64.00;;;;;;5015982;28;20452;-69
2023/04/18 08:57:25;;;;;;;8.40;6.03;;;22.30;63.00;;;;;;5015844;28;20444;-70
2023/04/18 08:59:52;;;;;;;9.57;5.93;;;22.40;62.30;;;;;;5019913;28;20456;-69
2023/04/18 09:02:22;;;;;;;6.13;5.53;;;21.90;62.40;;;;;;5017794;28;20501;-68
2023/04/18 09:04:51;;;;;;;6.97;5.77;;;21.70;62.60;;;;;;5020126;28;20581;-69
2023/04/18 09:07:20;;;;;;;7.37;6.33;;;22.00;62.50;;;;;;5025188;28;20443;-68
2023/04/18 09:09:49;;;;;;;12.00;6.20;;;21.70;61.90;;;;;;5019973;28;20940;-70
2023/04/18 09:12:21;;;;;;;8.87;6.00;;;21.20;63.40;;;;;;5022816;28;20443;-71
2023/04/18 09:14:50;;;;;;;6.53;5.07;;;21.10;62.80;;;;;;5025651;28;20467;-70
2023/04/18 09:17:32;;;;;;;7.72;5.90;;;21.60;63.70;;;;;;5016300;28;20828;-68
2023/04/18 09:20:01;;;;;;;6.80;5.47;;;22.20;62.90;;;;;;5008571;28;20259;-69
2023/04/18 09:35:52;;;;;;;8.67;4.60;;;22.00;62.10;;;;;;6192041;22;1299724;-70
2023/04/18 09:38:18;;;;;;;4.30;3.90;;;21.50;63.50;;;;;;6223517;23;20591;-72
2023/04/18 09:40:46;;;;;;;5.53;3.60;;;21.20;63.70;;;;;;6224017;23;20751;-73
2023/04/18 09:43:20;;;;;;;3.03;2.83;;;20.70;63.80;;;;;;6223512;23;20436;-73
2023/04/18 09:45:48;;;;;;;7.40;2.97;;;20.10;64.70;;;;;;6224051;23;20505;-71
2023/04/18 09:48:15;;;;;;;3.53;3.23;;;19.40;65.40;;;;;;6223592;23;20868;-72
2023/04/18 09:50:43;;;;;;;3.53;3.20;;;19.00;66.20;;;;;;6223660;23;20447;-71
2023/04/18 09:53:14;;;;;;;3.80;3.27;;;18.40;67.50;;;;;;6226572;23;20854;-71
2023/04/18 09:55:43;;;;;;;2.83;2.60;;;18.40;68.40;;;;;;6227471;23;20925;-73
2023/04/18 09:58:11;;;;;;;5.20;3.30;;;18.40;68.40;;;;;;6227417;23;20707;-73
2023/04/18 10:00:40;;;;;;;3.03;2.77;;;18.20;69.00;;;;;;6226545;23;20407;-74
2023/04/18 10:03:08;;;;;;;3.07;2.57;;;18.50;69.10;;;;;;6227025;23;20391;-72
2023/04/18 10:05:39;;;;;;;3.57;2.93;;;18.70;69.00;;;;;;6228499;23;20508;-72
2023/04/18 10:08:08;;;;;;;3.40;3.10;;;19.60;68.60;;;;;;6225984;23;20397;-71
2023/04/18 10:10:36;;;;;;;3.20;2.90;;;19.80;67.90;;;;;;6223517;23;20423;-73
2023/04/18 10:13:05;;;;;;;3.50;3.20;;;20.50;67.20;;;;;;6223917;23;20390;-70
2023/04/18 10:15:38;;;;;;;4.20;3.77;;;20.80;65.50;;;;;;6222915;23;20513;-74
2023/04/18 10:18:09;;;;;;;3.20;2.90;;;20.30;66.30;;;;;;6222889;23;20857;-71
2023/04/18 10:20:36;;;;;;;6.30;3.97;;;20.20;67.00;;;;;;6222977;23;20389;-75
2023/04/18 10:23:34;;;;;;;3.10;2.80;;;20.00;67.10;;;;;;6223394;23;20394;-70
2023/04/18 10:26:03;;;;;;;6.90;3.90;;;19.40;67.50;;;;;;6223264;23;20441;-70
2023/04/18 10:28:49;;;;;;;4.60;4.20;;;18.80;68.60;;;;;;6223461;23;20743;-70
2023/04/18 10:31:17;;;;;;;6.57;4.77;;;18.50;69.60;;;;;;6222185;23;20401;-70
2023/04/18 10:33:47;;;;;;;4.63;4.20;;;17.70;70.80;;;;;;6223339;23;20422;-71
2023/04/18 10:36:18;;;;;;;5.90;5.03;;;17.50;72.10;;;;;;6217071;23;20422;-71
2023/04/18 10:38:50;;;;;;;6.70;4.47;;;17.50;72.30;;;;;;6215637;23;20399;-69
2023/04/18 10:41:24;;;;;;;4.93;4.43;;;17.60;73.30;;;;;;6215621;23;20482;-70
2023/04/18 10:44:18;;;;;;;6.37;5.30;;;17.50;72.50;;;;;;6215369;23;20960;-69
2023/04/18 10:47:18;;;;;;;6.77;6.07;;;16.90;73.90;;;;;;6215294;23;20398;-71
2023/04/18 10:50:03;;;;;;;6.93;4.83;;;17.30;75.00;;;;;;6215577;23;20473;-70
2023/04/18 10:52:31;;;;;;;5.23;4.73;;;17.60;74.80;;;;;;6215661;23;20427;-70
2023/04/18 10:55:09;;;;;;;7.33;5.97;;;17.20;74.40;;;;;;6216657;23;20501;-69
2023/04/18 10:57:42;;;;;;;6.03;5.47;;;16.60;75.30;;;;;;6216091;23;20390;-70
2023/04/18 11:00:11;;;;;;;6.93;6.22;;;16.10;76.30;;;;;;6216356;23;20397;-70
2023/04/18 11:02:44;;;;;;;7.95;6.43;;;15.70;77.30;;;;;;6216135;23;20207;-70
2023/04/18 11:05:11;;;;;;;7.63;5.90;;;15.70;78.30;;;;;;6215639;23;20706;-71
2023/04/18 11:07:40;;;;;;;8.18;6.55;;;15.60;78.50;;;;;;6216175;23;20247;-70
2023/04/18 11:10:09;;;;;;;10.18;5.82;;;15.30;79.40;;;;;;6216471;23;20167;-69
2023/04/18 11:12:37;;;;;;;8.45;7.07;;;15.00;80.40;;;;;;6217922;23;20187;-69
2023/04/18 11:15:10;;;;;;;8.23;6.25;;;15.00;81.50;;;;;;6219234;23;20196;-69
2023/04/18 11:17:39;;;;;;;5.78;5.13;;;14.80;82.00;;;;;;6219488;23;20172;-70
2023/04/18 11:20:09;;;;;;;6.32;5.13;;;15.00;82.40;;;;;;6219562;23;20673;-72
2023/04/18 11:22:47;;;;;;;8.25;6.50;;;15.30;81.90;;;;;;6218441;23;20172;-71
2023/04/18 11:25:15;;;;;;;7.72;6.78;;;15.50;81.40;;;;;;6217703;23;20201;-72
2023/04/18 11:27:44;;;;;;;7.13;6.38;;;15.70;80.70;;;;;;6216166;23;20632;-72
2023/04/18 11:30:13;;;;;;;6.97;5.93;;;15.70;81.30;;;;;;6215276;23;20168;-71
2023/04/18 11:32:42;;;;;;;7.68;6.80;;;15.50;80.80;;;;;;6214891;23;20164;-74
2023/04/18 11:35:10;;;;;;;8.88;6.20;;;15.40;81.20;;;;;;6214615;23;20688;-71
2023/04/18 11:37:37;;;;;;;9.50;6.15;;;15.30;82.00;;;;;;6215594;23;20259;-70
2023/04/18 11:40:06;;;;;;;8.38;6.85;;;14.90;82.60;;;;;;6214662;23;20171;-70
2023/04/18 11:42:34;;;;;;;10.00;7.00;;;14.70;83.60;;;;;;6215042;23;20172;-72
2023/04/18 11:45:01;;;;;;;7.22;6.63;;;14.80;84.00;;;;;;6214495;23;20242;-71
2023/04/18 11:47:31;;;;;;;8.73;6.72;;;14.60;84.60;;;;;;6213960;23;20187;-72
2023/04/18 11:50:00;;;;;;;6.80;5.88;;;14.50;84.60;;;;;;6214955;23;20444;-70
2023/04/18 11:52:28;;;;;;;8.32;7.07;;;14.50;85.30;;;;;;6214929;23;20155;-73
2023/04/18 11:54:56;;;;;;;8.27;6.75;;;14.60;85.70;;;;;;6214908;23;20196;-72
2023/04/18 11:57:25;;;;;;;6.15;5.55;;;14.90;84.90;;;;;;6215326;23;20496;-72
2023/04/18 11:59:53;;;;;;;8.50;5.35;;;15.20;84.10;;;;;;6218336;23;20188;-70
2023/04/18 12:02:22;;;;;;;6.70;6.05;;;15.30;83.50;;;;;;6223952;23;20234;-69
2023/04/18 12:04:57;;;;;;;7.35;6.40;;;15.40;82.60;;;;;;6216092;23;20200;-72
2023/04/18 12:07:34;;;;;;;6.50;4.90;;;15.30;82.60;;;;;;6214838;23;20214;-71
2023/04/18 12:10:02;;;;;;;7.45;5.43;;;15.20;83.20;;;;;;6214621;23;20229;-71
2023/04/18 12:12:29;;;;;;;5.15;4.65;;;15.10;83.80;;;;;;6215822;23;20214;-71
2023/04/18 12:15:04;;;;;;;6.47;5.88;;;15.40;83.60;;;;;;6214775;23;20209;-70
2023/04/18 12:17:32;;;;;;;6.80;6.13;;;15.70;83.10;;;;;;6214872;23;20248;-71
2023/04/18 12:20:07;;;;;;;5.70;5.20;;;15.70;82.40;;;;;;6213254;23;20241;-71
2023/04/18 12:22:42;;;;;;;4.80;4.30;;;15.80;82.90;;;;;;6212490;23;20170;-70
2023/04/18 12:25:20;;;;;;;7.00;5.10;;;15.70;82.60;;;;;;6212744;23;20759;-70
2023/04/18 12:27:52;;;;;;;6.05;5.03;;;15.60;81.70;;;;;;6213260;23;20230;-69
2023/04/18 12:30:22;;;;;;;6.38;5.10;;;15.60;82.60;;;;;;6213693;23;20559;-71
2023/04/18 12:32:51;;;;;;;5.40;4.40;;;15.90;82.40;;;;;;6213826;23;20159;-71
2023/04/18 12:35:20;;;;;;;4.97;4.47;;;15.90;82.30;;;;;;6212842;23;20695;-70
2023/04/18 12:37:48;;;;;;;5.90;4.63;;;15.60;82.20;;;;;;6214496;23;20196;-69
2023/04/18 12:40:17;;;;;;;5.05;4.55;;;15.60;83.00;;;;;;6214953;23;20164;-69
2023/04/18 12:42:45;;;;;;;4.55;4.13;;;15.50;83.10;;;;;;6214100;23;20505;-70
2023/04/18 12:45:13;;;;;;;9.25;4.97;;;15.30;83.00;;;;;;6214926;23;20533;-69
2023/04/18 12:47:42;;;;;;;5.93;4.32;;;15.20;84.00;;;;;;6216319;23;20536;-71
2023/04/18 12:50:11;;;;;;;6.55;5.57;;;15.00;84.30;;;;;;6214079;23;20540;-71
2023/04/18 12:52:41;;;;;;;8.77;5.03;;;14.90;84.30;;;;;;6214806;23;20218;-68
2023/04/18 12:55:09;;;;;;;5.55;4.60;;;14.60;84.80;;;;;;6215274;23;20200;-69
2023/04/18 12:57:37;;;;;;;7.65;4.15;;;14.80;85.10;;;;;;6215110;23;20484;-70
2023/04/18 13:00:09;;;;;;;4.55;3.95;;;14.90;84.90;;;;;;6210685;22;20163;-79
2023/04/18 13:02:37;;;;;;;6.30;4.97;;;15.10;84.70;;;;;;6202503;23;20168;-78